Time;durP1;ratioP1;P1;durP2;ratioP2;P2;SDS_P1;SDS_P2;PMS_P1;PMS_P2;Temp;Humidity;BMP_temperature;BMP_pressure;BME280_temperature;BME280_humidity;BME280_pressure;Samples;Min_cycle;Max_cycle;Signal;HPM_P1;HPM_P2
2023/03/07 00:00:45;;;;;;;12.55;8.73;;;;;;;7.83;46.49;93048.88;5024246;28;20049;-76
2023/03/07 00:03:12;;;;;;;13.95;8.32;;;;;;;7.57;47.56;93068.19;5022528;28;20208;-75
2023/03/07 00:05:38;;;;;;;13.30;8.90;;;;;;;7.13;47.64;93039.38;5025045;28;20034;-76
2023/03/07 00:08:03;;;;;;;13.48;9.10;;;;;;;7.21;48.84;93057.09;5010888;28;20029;-75
2023/03/07 00:10:29;;;;;;;12.52;8.63;;;;;;;7.51;47.70;93055.41;5007240;28;20236;-75
2023/03/07 00:12:54;;;;;;;13.75;8.82;;;;;;;7.33;47.99;93030.06;5021371;28;20057;-74
2023/03/07 00:15:20;;;;;;;11.80;7.75;;;;;;;7.24;48.07;93030.03;5023797;28;20037;-73
2023/03/07 00:17:45;;;;;;;8.57;6.40;;;;;;;6.95;47.90;93016.63;5022254;28;20089;-74
2023/03/07 00:20:13;;;;;;;10.75;6.35;;;;;;;7.07;47.94;93008.88;5025792;28;20025;-74
2023/03/07 00:22:39;;;;;;;10.25;6.40;;;;;;;7.06;47.18;93002.03;5025435;28;20041;-75
2023/03/07 00:25:04;;;;;;;10.30;6.28;;;;;;;7.07;47.07;93024.75;5024434;28;20506;-74
2023/03/07 00:27:31;;;;;;;10.43;6.15;;;;;;;7.13;46.75;92991.78;5024661;28;20112;-76
2023/03/07 00:29:57;;;;;;;9.10;5.15;;;;;;;7.19;45.85;92990.53;5011464;28;20037;-76
2023/03/07 00:32:22;;;;;;;8.70;4.80;;;;;;;7.28;45.28;92988.66;5025026;28;20042;-75
2023/03/07 00:34:48;;;;;;;8.88;5.25;;;;;;;7.29;45.06;92987.56;5023558;28;20556;-76
2023/03/07 00:37:14;;;;;;;7.70;4.82;;;;;;;7.17;45.28;92988.19;5023770;28;20045;-75
2023/03/07 00:39:42;;;;;;;4.95;3.70;;;;;;;7.32;44.02;93005.47;5022954;28;20452;-75
2023/03/07 00:42:08;;;;;;;5.25;4.35;;;;;;;7.16;45.11;93004.38;5024543;28;20034;-74
2023/03/07 00:44:34;;;;;;;5.10;3.85;;;;;;;7.18;44.42;92994.28;5010957;28;20049;-75
2023/03/07 00:46:59;;;;;;;5.53;4.40;;;;;;;7.00;44.42;93004.03;5019833;28;20084;-74
2023/03/07 00:49:25;;;;;;;6.25;4.88;;;;;;;6.82;44.87;92968.88;5022744;28;20068;-75
2023/03/07 00:51:50;;;;;;;5.32;4.00;;;;;;;7.23;44.67;92996.75;5023480;28;20394;-76
2023/03/07 00:54:16;;;;;;;6.28;4.65;;;;;;;7.15;45.25;93019.44;5023367;28;20074;-74
2023/03/07 00:56:42;;;;;;;7.22;5.22;;;;;;;7.10;45.38;93002.97;5000733;28;20041;-74
2023/03/07 00:59:07;;;;;;;6.85;4.95;;;;;;;7.22;45.18;93005.78;5022603;28;20021;-75
2023/03/07 01:01:37;;;;;;;7.53;5.53;;;;;;;7.31;45.40;93003.91;5023126;28;20041;-76
2023/03/07 01:04:02;;;;;;;9.18;5.50;;;;;;;7.49;45.17;93007.31;5027167;28;20056;-74
2023/03/07 01:06:31;;;;;;;14.48;9.45;;;;;;;7.56;44.72;93000.47;5023480;28;20083;-75
2023/03/07 01:08:58;;;;;;;12.23;7.63;;;;;;;7.32;45.00;92984.31;5011361;28;20045;-73
2023/03/07 01:11:25;;;;;;;16.27;9.50;;;;;;;7.53;44.43;93010.91;5025227;28;20034;-74
2023/03/07 01:13:54;;;;;;;9.18;5.85;;;;;;;7.20;45.05;93008.72;5022522;28;20037;-76
2023/03/07 01:16:23;;;;;;;11.10;7.57;;;;;;;6.57;47.46;93017.19;5025126;28;20100;-75
2023/03/07 01:18:51;;;;;;;12.77;8.63;;;;;;;6.79;47.29;93008.38;5021706;28;20117;-74
2023/03/07 01:21:23;;;;;;;15.27;10.13;;;;;;;6.73;48.44;93006.97;5019263;28;20054;-74
2023/03/07 01:23:48;;;;;;;15.75;9.10;;;;;;;5.99;49.27;92994.41;5000313;28;20050;-73
2023/03/07 01:26:16;;;;;;;11.35;7.40;;;;;;;6.81;46.73;92985.81;5021998;28;20049;-74
2023/03/07 01:28:41;;;;;;;7.38;4.55;;;;;;;6.95;45.08;92985.69;5008842;28;20022;-75
2023/03/07 01:31:07;;;;;;;6.35;4.15;;;;;;;7.35;44.28;92980.25;5026007;28;20116;-75
2023/03/07 01:33:32;;;;;;;5.28;4.10;;;;;;;7.43;43.76;92963.59;5024165;28;20101;-75
2023/03/07 01:35:58;;;;;;;3.95;3.53;;;;;;;7.43;43.38;92966.25;5026791;28;20033;-75
2023/03/07 01:38:23;;;;;;;7.63;4.35;;;;;;;7.28;43.23;92984.16;5025874;28;20798;-76
2023/03/07 01:40:49;;;;;;;4.95;3.90;;;;;;;7.26;43.23;92940.59;5024528;28;20021;-75
2023/03/07 01:43:23;;;;;;;4.25;3.80;;;;;;;7.81;42.90;92963.72;5022382;28;20056;-74
2023/03/07 01:45:49;;;;;;;5.70;3.90;;;;;;;8.11;42.65;92968.75;5025503;28;20037;-75
2023/03/07 01:48:14;;;;;;;6.68;4.85;;;;;;;8.16;41.32;92959.88;5024281;28;20060;-74
2023/03/07 01:50:41;;;;;;;14.38;9.18;;;;;;;7.85;44.99;92956.69;5022389;28;20038;-75
2023/03/07 01:53:07;;;;;;;14.05;10.52;;;;;;;6.62;47.80;92950.97;5024987;28;20087;-75
2023/03/07 01:55:35;;;;;;;14.30;8.77;;;;;;;6.91;48.02;92973.41;5022650;28;20029;-75
2023/03/07 01:58:07;;;;;;;17.23;10.25;;;;;;;7.04;47.36;92951.34;5023827;28;20026;-74
2023/03/07 02:00:35;;;;;;;18.70;10.98;;;;;;;7.56;46.54;92963.44;5010896;28;20049;-74
2023/03/07 02:03:09;;;;;;;13.18;9.18;;;;;;;7.39;47.23;92984.59;5023743;28;20044;-76
2023/03/07 02:05:42;;;;;;;15.97;9.87;;;;;;;6.82;47.74;92970.75;5008016;28;20046;-75
2023/03/07 02:08:12;;;;;;;13.05;9.02;;;;;;;6.28;49.15;92983.38;5022743;28;20267;-75
2023/03/07 02:10:40;;;;;;;17.50;9.90;;;;;;;5.19;51.99;92999.81;5024125;28;20142;-75
2023/03/07 02:13:06;;;;;;;15.95;9.65;;;;;;;4.64;54.04;92999.19;5017587;28;20133;-74
2023/03/07 02:15:35;;;;;;;14.68;10.10;;;;;;;4.59;53.87;92976.38;5015556;28;20049;-74
2023/03/07 02:18:02;;;;;;;13.95;9.85;;;;;;;5.21;52.79;92965.25;5021586;28;20037;-74
2023/03/07 02:20:44;;;;;;;16.65;9.85;;;;;;;6.05;51.00;92981.88;5025177;28;20045;-73
2023/03/07 02:23:22;;;;;;;13.95;9.10;;;;;;;5.29;51.54;92961.88;5023080;28;20030;-75
2023/03/07 02:26:08;;;;;;;12.98;8.95;;;;;;;5.21;52.29;92978.44;5012543;28;20034;-75
2023/03/07 02:28:34;;;;;;;10.10;7.40;;;;;;;4.94;51.93;92964.25;5009247;28;20041;-75
2023/03/07 02:31:03;;;;;;;13.05;8.95;;;;;;;5.36;51.28;92970.16;5023132;28;20045;-75
2023/03/07 02:33:28;;;;;;;14.43;8.95;;;;;;;5.10;52.62;92970.75;5020180;28;20572;-74
2023/03/07 02:35:57;;;;;;;15.27;8.20;;;;;;;5.09;52.74;92982.38;5028971;28;20029;-74
2023/03/07 02:38:23;;;;;;;15.05;9.57;;;;;;;5.23;52.39;92992.09;5020340;28;20038;-75
2023/03/07 02:40:51;;;;;;;13.93;9.27;;;;;;;5.18;52.44;92971.91;5023586;28;20025;-75
2023/03/07 02:43:17;;;;;;;14.30;10.07;;;;;;;5.77;51.56;92994.47;5020735;28;20044;-75
2023/03/07 02:45:43;;;;;;;11.68;8.82;;;;;;;5.22;51.96;92980.00;5000648;28;20548;-75
2023/03/07 02:48:09;;;;;;;15.93;9.57;;;;;;;5.23;52.50;92976.28;5020699;28;20041;-74
2023/03/07 02:50:37;;;;;;;14.68;9.98;;;;;;;4.49;54.15;92986.34;5006326;28;20532;-75
2023/03/07 02:53:03;;;;;;;15.18;9.63;;;;;;;4.36;55.13;92971.31;5001203;28;20117;-74
2023/03/07 02:55:29;;;;;;;10.23;7.70;;;;;;;4.97;53.71;92987.41;5005518;28;20250;-75
2023/03/07 02:57:54;;;;;;;15.68;8.38;;;;;;;5.14;53.06;92955.91;5023503;28;20685;-75
2023/03/07 03:00:20;;;;;;;12.30;7.93;;;;;;;5.09;52.54;92958.66;5026547;28;20037;-76
2023/03/07 03:02:45;;;;;;;11.85;7.68;;;;;;;4.86;52.84;92953.66;5023748;28;20030;-75
2023/03/07 03:05:10;;;;;;;10.63;7.65;;;;;;;5.58;51.71;92976.19;5026975;28;20029;-76
2023/03/07 03:07:36;;;;;;;13.55;10.40;;;;;;;5.91;51.03;92962.72;5024952;28;20076;-75
2023/03/07 03:10:02;;;;;;;11.73;9.30;;;;;;;6.28;50.42;92993.16;5024387;28;20109;-76
2023/03/07 03:12:27;;;;;;;11.63;8.07;;;;;;;6.43;49.48;92982.97;5026073;28;20070;-74
2023/03/07 03:14:53;;;;;;;13.90;9.50;;;;;;;6.58;49.38;92965.13;5027271;28;20037;-75
2023/03/07 03:17:18;;;;;;;14.32;8.82;;;;;;;6.63;48.56;92944.63;5010500;28;20041;-74
2023/03/07 03:19:44;;;;;;;13.80;9.40;;;;;;;7.11;48.22;92978.06;5025653;28;20021;-75
2023/03/07 03:22:09;;;;;;;12.23;8.70;;;;;;;7.28;47.73;92972.81;5026829;28;20056;-75
2023/03/07 03:24:41;;;;;;;13.27;8.32;;;;;;;7.44;47.76;92981.78;5026218;28;20057;-76
2023/03/07 03:27:09;;;;;;;17.40;10.73;;;;;;;7.62;47.02;92977.28;5026773;28;20048;-74
2023/03/07 03:29:35;;;;;;;17.45;10.27;;;;;;;7.76;46.71;92974.47;5025012;28;20136;-76
2023/03/07 03:32:03;;;;;;;13.68;8.95;;;;;;;7.93;46.37;92971.75;5026157;28;20025;-75
2023/03/07 03:34:28;;;;;;;13.23;9.15;;;;;;;8.00;46.20;92972.06;5015372;28;20038;-76
2023/03/07 03:36:54;;;;;;;13.25;8.75;;;;;;;7.80;46.49;92959.50;5019524;28;20065;-75
2023/03/07 03:39:19;;;;;;;16.95;10.25;;;;;;;7.98;46.09;92968.94;5027666;28;20072;-75
2023/03/07 03:41:45;;;;;;;15.75;9.73;;;;;;;8.16;46.12;92989.00;5026799;28;20042;-76
2023/03/07 03:44:10;;;;;;;10.73;8.40;;;;;;;8.20;45.47;92971.38;5029547;28;20044;-75
2023/03/07 03:46:36;;;;;;;11.98;7.72;;;;;;;8.21;45.45;92998.63;5008356;28;20045;-75
2023/03/07 03:49:02;;;;;;;11.68;8.50;;;;;;;8.04;46.07;92983.56;5027265;28;20069;-76
2023/03/07 03:51:27;;;;;;;15.43;8.60;;;;;;;7.75;46.71;93002.03;5009498;28;20087;-76
2023/03/07 03:53:54;;;;;;;12.52;8.68;;;;;;;8.02;46.73;93002.41;5009989;28;20049;-74
2023/03/07 03:56:22;;;;;;;15.52;8.65;;;;;;;8.04;46.46;92986.22;5009844;28;20030;-75
2023/03/07 03:58:53;;;;;;;13.10;8.38;;;;;;;8.21;45.82;93004.72;5027319;28;20630;-76
2023/03/07 04:01:20;;;;;;;16.73;9.23;;;;;;;8.17;45.80;92993.19;5026434;28;20045;-74
2023/03/07 04:03:48;;;;;;;15.02;8.52;;;;;;;8.34;45.55;93002.94;5026550;28;20042;-74
2023/03/07 04:06:20;;;;;;;12.90;8.23;;;;;;;8.17;45.76;92976.53;5025691;28;20061;-77
2023/03/07 04:08:46;;;;;;;15.98;9.82;;;;;;;8.00;46.22;92966.78;5024819;28;20108;-75
2023/03/07 04:11:12;;;;;;;23.08;9.85;;;;;;;7.33;47.54;92977.94;5024845;28;20084;-75
2023/03/07 04:13:37;;;;;;;13.98;8.65;;;;;;;7.15;47.36;92979.00;5028583;28;20528;-74
2023/03/07 04:16:03;;;;;;;14.27;8.82;;;;;;;6.90;47.88;92913.72;5024019;28;20046;-74
2023/03/07 04:18:29;;;;;;;16.20;10.40;;;;;;;7.82;46.82;92981.16;5014203;28;20034;-77
2023/03/07 04:20:55;;;;;;;15.98;9.18;;;;;;;7.40;47.16;92991.44;5029085;28;20124;-75
2023/03/07 04:23:22;;;;;;;14.50;9.25;;;;;;;7.04;48.58;93005.00;5009102;28;20573;-76
2023/03/07 04:25:49;;;;;;;14.05;9.40;;;;;;;6.54;49.65;92990.59;5029473;28;20040;-75
2023/03/07 04:28:16;;;;;;;13.55;9.48;;;;;;;5.28;53.08;92986.72;5007644;28;20096;-75
2023/03/07 04:30:42;;;;;;;16.40;9.88;;;;;;;5.34;53.89;93006.59;5025113;28;20038;-75
2023/03/07 04:33:07;;;;;;;17.90;10.25;;;;;;;4.88;54.42;93007.63;5024565;28;20033;-74
2023/03/07 04:35:33;;;;;;;16.45;10.73;;;;;;;4.98;54.39;92994.22;5025857;28;20033;-75
2023/03/07 04:37:58;;;;;;;18.10;9.93;;;;;;;5.75;52.61;93017.72;5023980;28;20080;-77
2023/03/07 04:40:23;;;;;;;16.45;9.00;;;;;;;5.13;53.63;92990.47;5025416;28;20029;-76
2023/03/07 04:42:49;;;;;;;19.60;10.18;;;;;;;4.82;55.07;93003.53;5022320;28;20045;-74
2023/03/07 04:45:14;;;;;;;13.77;9.82;;;;;;;4.94;55.41;93027.50;5024180;28;20460;-77
2023/03/07 04:47:40;;;;;;;17.58;10.23;;;;;;;5.44;53.95;93032.72;5025822;28;20539;-74
2023/03/07 04:50:07;;;;;;;11.60;8.70;;;;;;;5.01;55.17;93030.53;5026323;28;20029;-75
2023/03/07 04:52:35;;;;;;;18.10;10.90;;;;;;;4.81;55.88;92996.69;5026864;28;20056;-74
2023/03/07 04:55:01;;;;;;;14.57;9.35;;;;;;;5.11;55.99;93025.03;5023832;28;20030;-75
2023/03/07 04:57:26;;;;;;;20.35;10.85;;;;;;;5.89;54.01;93010.50;5022174;28;20040;-74
2023/03/07 04:59:52;;;;;;;14.63;9.98;;;;;;;6.45;52.17;93040.00;5014391;28;20540;-75
2023/03/07 05:02:17;;;;;;;19.23;11.10;;;;;;;5.28;54.21;92991.97;5024899;28;20033;-74
2023/03/07 05:04:43;;;;;;;18.55;11.63;;;;;;;5.59;54.73;93032.34;5026412;28;20077;-76
2023/03/07 05:07:08;;;;;;;23.95;12.02;;;;;;;5.94;54.01;93031.50;5017322;28;20527;-74
2023/03/07 05:09:33;;;;;;;24.40;11.57;;;;;;;5.16;55.35;93007.53;5022260;28;20034;-75
2023/03/07 05:11:59;;;;;;;22.52;11.95;;;;;;;4.85;57.19;93013.47;5022562;28;20033;-74
2023/03/07 05:14:24;;;;;;;16.88;11.48;;;;;;;5.03;56.59;92991.47;5024849;28;20041;-74
2023/03/07 05:16:50;;;;;;;17.67;11.02;;;;;;;5.61;54.98;93014.38;5024043;28;20562;-74
2023/03/07 05:19:15;;;;;;;17.58;10.73;;;;;;;5.83;54.71;93014.34;5022988;28;20041;-74
2023/03/07 05:21:42;;;;;;;19.65;10.63;;;;;;;6.01;53.65;93015.25;5020357;28;20062;-74
2023/03/07 05:24:09;;;;;;;17.88;11.35;;;;;;;6.12;53.65;93027.06;5008716;28;20050;-76
2023/03/07 05:26:35;;;;;;;19.08;12.30;;;;;;;6.19;53.52;93016.13;5022240;28;20116;-75
2023/03/07 05:29:01;;;;;;;20.17;13.13;;;;;;;5.53;55.47;93015.88;5023409;28;20717;-74
2023/03/07 05:31:26;;;;;;;17.67;12.45;;;;;;;5.95;54.48;93005.88;5024773;28;20092;-75
2023/03/07 05:33:52;;;;;;;19.48;12.80;;;;;;;6.61;53.64;93038.47;5011624;28;20042;-76
2023/03/07 05:36:22;;;;;;;16.65;10.77;;;;;;;6.20;53.39;93012.41;5025454;28;20100;-74
2023/03/07 05:38:47;;;;;;;20.55;12.60;;;;;;;5.13;56.67;93007.06;5022661;28;20033;-75
2023/03/07 05:41:12;;;;;;;25.33;12.98;;;;;;;5.48;56.80;93036.34;5024159;28;20468;-75
2023/03/07 05:43:38;;;;;;;21.33;12.15;;;;;;;6.22;55.03;93032.13;5023041;28;20037;-75
2023/03/07 05:46:03;;;;;;;26.05;16.75;;;;;;;6.24;53.89;93043.16;5023868;28;20034;-75
2023/03/07 05:48:29;;;;;;;21.00;12.50;;;;;;;5.83;53.74;93032.03;5025516;28;20041;-75
2023/03/07 05:50:58;;;;;;;27.67;12.85;;;;;;;5.26;56.04;93031.03;5012720;28;20050;-75
2023/03/07 05:53:24;;;;;;;20.55;11.90;;;;;;;5.98;55.00;93055.41;5007534;28;20061;-75
2023/03/07 05:55:49;;;;;;;20.67;11.93;;;;;;;5.86;53.93;93016.41;5015714;28;20033;-76
2023/03/07 05:58:15;;;;;;;17.23;10.82;;;;;;;6.06;53.20;93027.53;5024231;28;20112;-75
2023/03/07 06:00:40;;;;;;;20.05;11.52;;;;;;;5.33;55.27;93018.22;5022745;28;20089;-75
2023/03/07 06:03:08;;;;;;;18.75;11.70;;;;;;;5.09;56.64;93029.81;5025825;28;20037;-75
2023/03/07 06:05:33;;;;;;;22.33;12.70;;;;;;;5.04;57.82;93045.72;5019342;28;20037;-75
2023/03/07 06:07:59;;;;;;;28.88;13.68;;;;;;;4.83;58.43;93044.63;5008184;28;20044;-75
2023/03/07 06:10:24;;;;;;;22.23;14.32;;;;;;;4.77;58.58;93016.81;5020987;28;20042;-75
2023/03/07 06:12:51;;;;;;;25.45;15.02;;;;;;;4.47;60.78;93025.34;5021980;28;20046;-75
2023/03/07 06:15:17;;;;;;;28.42;15.48;;;;;;;4.59;61.13;93059.88;5001735;28;20049;-75
2023/03/07 06:17:43;;;;;;;24.15;13.90;;;;;;;4.25;62.40;93024.16;5020539;28;20121;-74
2023/03/07 06:20:09;;;;;;;22.20;13.93;;;;;;;4.75;61.27;93037.38;5019592;28;20161;-74
2023/03/07 06:22:37;;;;;;;21.52;13.63;;;;;;;5.34;59.31;93054.03;5019820;28;20036;-75
2023/03/07 06:25:06;;;;;;;22.30;13.00;;;;;;;4.80;60.72;93055.72;5017887;28;20515;-74
2023/03/07 06:27:33;;;;;;;22.52;13.13;;;;;;;4.33;62.18;93020.06;5020857;28;20073;-75
2023/03/07 06:29:58;;;;;;;24.20;13.18;;;;;;;4.62;61.49;93054.00;5021359;28;20572;-74
2023/03/07 06:32:24;;;;;;;27.15;14.68;;;;;;;5.04;60.85;93079.25;5020964;28;20060;-74
2023/03/07 06:34:49;;;;;;;22.38;12.88;;;;;;;4.89;60.68;93075.06;5027350;28;20085;-74
2023/03/07 06:37:15;;;;;;;24.50;12.93;;;;;;;4.70;61.29;93053.31;5023817;28;20042;-74
2023/03/07 06:39:41;;;;;;;25.48;12.05;;;;;;;4.90;60.98;93065.28;5021500;28;20042;-75
2023/03/07 06:42:07;;;;;;;20.45;12.48;;;;;;;5.12;59.81;93063.50;5022038;28;20037;-75
2023/03/07 06:44:33;;;;;;;25.77;12.80;;;;;;;5.72;58.68;93073.75;5024194;28;20042;-75
2023/03/07 06:46:58;;;;;;;19.20;12.30;;;;;;;5.86;57.51;93085.00;5025395;28;20374;-76
2023/03/07 06:49:23;;;;;;;22.08;14.10;;;;;;;5.58;58.23;93081.69;5025050;28;20092;-75
2023/03/07 06:51:49;;;;;;;25.58;12.77;;;;;;;5.72;57.86;93072.97;5023280;28;20056;-76
2023/03/07 06:54:14;;;;;;;21.58;13.65;;;;;;;5.55;58.35;93076.25;5020371;28;20202;-77
2023/03/07 06:56:40;;;;;;;20.23;12.38;;;;;;;5.80;57.09;93051.91;5026708;28;20065;-76
2023/03/07 06:59:05;;;;;;;19.38;12.40;;;;;;;5.41;57.73;93067.59;5005472;28;20381;-75
2023/03/07 07:01:30;;;;;;;19.73;11.23;;;;;;;5.10;58.74;93063.00;5025345;28;20036;-75
2023/03/07 07:03:56;;;;;;;16.80;11.60;;;;;;;5.06;59.13;93064.66;5023294;28;20053;-76
2023/03/07 07:06:22;;;;;;;18.48;12.07;;;;;;;5.20;59.25;93083.09;5004790;28;20041;-76
2023/03/07 07:08:50;;;;;;;20.40;12.93;;;;;;;5.20;58.87;93084.94;5021275;28;20050;-75
2023/03/07 07:11:15;;;;;;;19.10;11.15;;;;;;;5.62;57.67;93071.34;5023263;28;20053;-75
2023/03/07 07:13:41;;;;;;;20.95;12.25;;;;;;;5.70;57.05;93052.16;5022648;28;20029;-74
2023/03/07 07:16:07;;;;;;;25.83;13.20;;;;;;;5.94;56.81;93071.09;5024702;28;20044;-76
2023/03/07 07:18:36;;;;;;;21.80;12.80;;;;;;;5.75;56.24;93049.38;5013191;28;20034;-76
2023/03/07 07:21:02;;;;;;;17.25;11.52;;;;;;;5.51;57.15;93060.25;5022037;28;20041;-76
2023/03/07 07:23:34;;;;;;;24.15;13.80;;;;;;;5.35;58.31;93076.69;5007920;28;20949;-76
2023/03/07 07:26:00;;;;;;;18.33;11.15;;;;;;;5.57;58.00;93085.44;5026576;28;20022;-76
2023/03/07 07:28:26;;;;;;;21.67;12.52;;;;;;;5.97;56.79;93096.88;5024678;28;20440;-74
2023/03/07 07:30:52;;;;;;;19.95;12.80;;;;;;;6.40;55.49;93091.09;5008662;28;20084;-75
2023/03/07 07:33:18;;;;;;;24.80;13.02;;;;;;;6.29;55.70;93068.66;5021791;28;20057;-75
2023/03/07 07:35:44;;;;;;;15.13;10.70;;;;;;;6.05;56.06;93070.84;5023281;28;20049;-75
2023/03/07 07:38:13;;;;;;;22.50;12.02;;;;;;;6.22;55.28;93060.38;5021543;28;20084;-75
2023/03/07 07:40:38;;;;;;;24.02;12.75;;;;;;;6.12;55.82;93066.66;5007560;28;20021;-75
2023/03/07 07:43:04;;;;;;;22.48;13.48;;;;;;;5.84;56.18;93067.91;5023609;28;20045;-76
2023/03/07 07:45:29;;;;;;;25.98;13.30;;;;;;;6.09;55.78;93084.97;5024065;28;20034;-75
2023/03/07 07:47:55;;;;;;;23.23;13.07;;;;;;;6.26;55.78;93077.19;5023338;28;20033;-75
2023/03/07 07:50:21;;;;;;;23.52;13.50;;;;;;;6.56;55.15;93084.31;5023561;28;20467;-74
2023/03/07 07:52:47;;;;;;;26.55;12.77;;;;;;;6.65;54.76;93100.22;5010409;28;20031;-76
2023/03/07 07:55:16;;;;;;;18.42;10.57;;;;;;;6.59;54.69;93112.78;4995729;28;20485;-76
2023/03/07 07:57:41;;;;;;;19.85;11.77;;;;;;;6.67;54.70;93100.66;5025842;28;20049;-76
2023/03/07 08:00:11;;;;;;;19.27;11.95;;;;;;;6.85;54.57;93097.78;5029321;28;20033;-76
2023/03/07 08:02:37;;;;;;;20.02;12.32;;;;;;;6.79;54.28;93095.59;5014819;28;20146;-76
2023/03/07 08:05:06;;;;;;;18.40;10.95;;;;;;;7.32;53.25;93105.19;5029536;28;20025;-75
2023/03/07 08:07:31;;;;;;;38.42;12.80;;;;;;;7.74;53.15;93107.13;5010375;28;20037;-76
2023/03/07 08:09:57;;;;;;;24.50;11.55;;;;;;;7.32;52.25;93068.94;5015975;28;20358;-76
2023/03/07 08:12:22;;;;;;;28.70;11.65;;;;;;;7.70;51.65;93075.19;5029345;28;20649;-76
2023/03/07 08:14:48;;;;;;;24.77;12.18;;;;;;;7.92;50.79;93070.84;5026256;28;20113;-77
2023/03/07 08:17:13;;;;;;;33.00;11.43;;;;;;;7.63;50.32;93085.44;5025565;28;20029;-77
2023/03/07 08:19:38;;;;;;;20.88;10.60;;;;;;;8.05;49.85;93093.69;5027043;28;20024;-76
2023/03/07 08:22:04;;;;;;;40.88;11.82;;;;;;;7.53;50.59;93079.69;5006704;28;20570;-76
2023/03/07 08:24:33;;;;;;;29.50;12.05;;;;;;;7.28;51.25;93076.72;5021837;28;20182;-77
2023/03/07 08:26:59;;;;;;;21.88;10.82;;;;;;;7.62;50.65;93089.19;5009323;28;20038;-76
2023/03/07 08:29:24;;;;;;;18.42;9.15;;;;;;;7.84;50.29;93092.78;5008371;28;20052;-76
2023/03/07 08:31:53;;;;;;;14.88;8.10;;;;;;;7.55;48.91;93088.88;5023697;28;20463;-77
2023/03/07 08:34:19;;;;;;;17.90;8.68;;;;;;;7.86;49.12;93104.63;5005198;28;20334;-76
2023/03/07 08:36:45;;;;;;;14.18;8.57;;;;;;;8.00;49.16;93091.22;5017797;28;20109;-76
2023/03/07 08:39:11;;;;;;;19.77;9.05;;;;;;;8.01;48.68;93095.44;5019195;28;20573;-75
2023/03/07 08:41:37;;;;;;;14.50;8.02;;;;;;;8.02;47.65;93073.91;5020745;28;20034;-77
2023/03/07 08:44:03;;;;;;;44.38;11.50;;;;;;;8.18;48.33;93084.78;5017221;28;20033;-78
2023/03/07 08:46:29;;;;;;;20.65;8.88;;;;;;;8.84;47.03;93087.84;5019324;28;20040;-76
2023/03/07 08:48:54;;;;;;;11.05;7.60;;;;;;;9.21;45.41;93088.94;5019316;28;20042;-76
2023/03/07 08:51:27;;;;;;;16.10;7.05;;;;;;;9.29;45.29;93088.88;5020890;28;20474;-76
2023/03/07 08:53:53;;;;;;;17.23;9.15;;;;;;;8.89;45.66;93066.47;5013168;28;20045;-76
2023/03/07 08:56:18;;;;;;;12.05;7.88;;;;;;;8.88;46.09;93089.56;5016468;28;20033;-76
2023/03/07 08:58:44;;;;;;;12.63;7.90;;;;;;;9.48;46.27;93091.09;4999832;28;20040;-77
2023/03/07 09:01:11;;;;;;;13.30;8.77;;;;;;;9.27;45.87;93072.50;5022949;28;20037;-77
2023/03/07 09:03:37;;;;;;;12.60;7.50;;;;;;;9.55;45.23;93066.69;5019786;28;20101;-77
2023/03/07 09:06:04;;;;;;;13.75;9.00;;;;;;;9.77;44.71;93059.19;5008862;28;20157;-76
2023/03/07 09:08:30;;;;;;;11.75;8.40;;;;;;;9.86;44.26;93080.34;5023909;28;20618;-75
2023/03/07 09:10:59;;;;;;;14.63;8.82;;;;;;;9.59;44.53;93067.59;4995670;28;20468;-75
2023/03/07 09:13:25;;;;;;;15.18;8.35;;;;;;;9.83;44.63;93062.38;5018570;28;20379;-76
2023/03/07 09:15:51;;;;;;;13.00;8.60;;;;;;;10.21;44.10;93073.63;5012859;28;20136;-75
2023/03/07 09:18:16;;;;;;;11.27;8.18;;;;;;;9.86;43.73;93056.44;5015919;28;20144;-74
2023/03/07 09:20:41;;;;;;;14.38;8.73;;;;;;;9.91;42.85;93053.59;5013108;28;20046;-76
2023/03/07 09:23:07;;;;;;;14.85;8.63;;;;;;;10.11;43.07;93083.88;5018279;28;20080;-76
2023/03/07 09:25:35;;;;;;;12.75;7.93;;;;;;;10.46;43.33;93071.06;5017728;28;20923;-76
2023/03/07 09:28:01;;;;;;;12.57;9.00;;;;;;;10.49;41.97;93073.03;5019512;28;20045;-76
2023/03/07 09:30:27;;;;;;;16.25;8.70;;;;;;;9.96;42.84;93061.34;5019621;28;20050;-77
2023/03/07 09:32:53;;;;;;;10.13;7.50;;;;;;;9.96;42.65;93077.28;5001224;28;20038;-76
2023/03/07 09:35:18;;;;;;;14.65;8.73;;;;;;;9.72;43.04;93040.00;5018123;28;20022;-75
2023/03/07 09:37:43;;;;;;;13.45;8.20;;;;;;;10.37;41.35;93059.75;5020615;28;20027;-76
2023/03/07 09:40:22;;;;;;;12.70;7.85;;;;;;;10.50;41.22;93045.34;5000917;28;20038;-75
2023/03/07 09:42:54;;;;;;;11.25;7.28;;;;;;;10.87;41.28;93057.56;5018231;28;20056;-76
2023/03/07 09:45:32;;;;;;;16.98;8.07;;;;;;;10.83;40.78;93055.91;5018838;28;20048;-76
2023/03/07 09:48:04;;;;;;;14.90;8.43;;;;;;;10.94;40.88;93046.38;5019654;28;20037;-76
2023/03/07 09:50:54;;;;;;;16.63;8.15;;;;;;;10.55;41.46;93039.81;5013185;28;20053;-76
2023/03/07 09:54:20;;;;;;;15.18;9.05;;;;;;;10.17;42.28;93051.44;5018012;28;20350;-76
2023/03/07 09:56:54;;;;;;;14.15;8.82;;;;;;;9.85;43.22;93053.00;4965200;28;20063;-76
2023/03/07 09:59:32;;;;;;;15.98;8.50;;;;;;;10.01;42.22;93028.50;5012280;28;20504;-76
2023/03/07 10:02:02;;;;;;;13.73;8.23;;;;;;;9.72;42.18;93029.41;5019857;28;21153;-75
2023/03/07 10:04:45;;;;;;;9.48;6.97;;;;;;;9.75;41.92;93008.28;5004211;28;20052;-75
2023/03/07 10:07:14;;;;;;;12.95;7.53;;;;;;;10.20;41.36;93029.53;5010591;28;20038;-76
2023/03/07 10:09:40;;;;;;;13.27;7.40;;;;;;;9.84;43.12;93024.13;5002662;28;20041;-76
2023/03/07 10:12:39;;;;;;;12.82;7.32;;;;;;;10.46;41.38;93012.56;5021491;28;20639;-74
2023/03/07 10:15:07;;;;;;;13.18;7.30;;;;;;;10.28;41.31;93015.38;5021569;28;20132;-76
2023/03/07 10:17:47;;;;;;;12.95;6.75;;;;;;;10.13;41.95;93021.31;5023706;28;20045;-76
2023/03/07 10:20:24;;;;;;;13.32;8.25;;;;;;;10.53;40.59;93018.09;5005301;28;20641;-76
2023/03/07 10:23:04;;;;;;;11.93;7.00;;;;;;;10.16;40.70;92988.81;5003259;28;20041;-76
2023/03/07 10:26:00;;;;;;;12.02;6.32;;;;;;;10.27;40.34;93008.50;5022529;28;20045;-76
2023/03/07 10:28:32;;;;;;;12.40;6.85;;;;;;;9.95;40.08;92998.72;5022617;28;21198;-76
2023/03/07 10:31:09;;;;;;;8.55;5.55;;;;;;;10.31;39.47;92966.13;5006567;28;20048;-75
2023/03/07 10:33:38;;;;;;;18.55;6.55;;;;;;;10.45;39.39;93013.66;5022442;28;20065;-75
2023/03/07 10:36:15;;;;;;;10.05;5.45;;;;;;;10.63;40.13;93009.69;5018930;28;20048;-75
2023/03/07 10:39:05;;;;;;;11.50;6.13;;;;;;;10.56;39.41;92999.59;5005919;28;20092;-76
2023/03/07 10:41:31;;;;;;;7.78;4.75;;;;;;;10.96;38.79;92998.91;5007002;28;20049;-76
2023/03/07 10:43:57;;;;;;;6.30;4.40;;;;;;;11.25;39.41;92974.69;5022398;28;20025;-75
2023/03/07 10:46:26;;;;;;;9.00;4.78;;;;;;;11.41;37.06;92972.88;5010572;28;20037;-76
2023/03/07 10:49:03;;;;;;;15.57;4.82;;;;;;;11.49;37.13;92987.19;5022462;28;20150;-75
2023/03/07 10:51:54;;;;;;;6.82;4.00;;;;;;;11.35;37.87;92981.44;5023018;28;20125;-75
2023/03/07 10:54:23;;;;;;;5.53;3.97;;;;;;;11.68;36.52;92971.38;5010899;28;20098;-74
2023/03/07 10:57:09;;;;;;;6.15;4.70;;;;;;;11.81;34.46;92964.88;5004522;28;20457;-74
2023/03/07 10:59:36;;;;;;;3.40;2.20;;;;;;;11.73;33.99;92919.75;5016679;28;20054;-76
2023/03/07 11:02:33;;;;;;;6.68;2.00;;;;;;;11.51;34.43;92953.00;5001479;28;20025;-74
2023/03/07 11:04:59;;;;;;;3.25;2.25;;;;;;;11.58;34.24;92946.00;5014038;28;20117;-75
2023/03/07 11:07:35;;;;;;;3.40;2.35;;;;;;;11.74;34.33;92935.38;5019938;28;20540;-76
2023/03/07 11:10:39;;;;;;;5.75;2.60;;;;;;;12.01;34.12;92929.25;4996095;28;20063;-75
2023/03/07 11:13:19;;;;;;;5.20;2.95;;;;;;;11.63;33.79;92875.75;5008086;28;20041;-76
2023/03/07 11:15:45;;;;;;;2.90;1.92;;;;;;;11.79;34.55;92889.84;5017177;28;20481;-75
2023/03/07 11:18:30;;;;;;;4.00;2.20;;;;;;;12.18;33.83;92906.78;5018178;28;20564;-75
2023/03/07 11:20:56;;;;;;;85.70;57.05;;;;;;;12.22;33.57;92917.56;5001882;28;20553;-76
2023/03/07 11:23:30;;;;;;;9.27;4.60;;;;;;;11.96;35.64;92905.50;5021596;28;22697;-76
2023/03/07 11:26:13;;;;;;;9.68;4.13;;;;;;;11.94;33.47;92875.75;5024456;28;20029;-75
2023/03/07 11:28:40;;;;;;;4.28;2.47;;;;;;;12.04;34.43;92895.78;5022148;28;20038;-75
2023/03/07 11:31:33;;;;;;;9.75;3.45;;;;;;;12.33;33.86;92898.03;5024158;28;20042;-75
2023/03/07 11:34:21;;;;;;;4.25;3.40;;;;;;;12.55;33.47;92891.28;5006779;28;20049;-75